sensor_id;sensor_type;location;lat;lon;timestamp;pressure;altitude;pressure_sealevel;temperature;humidity
21153;BME280;10734;44.792;20.482;2023-03-14T08:52:40;99265.22;;;12.40;nan
21153;BME280;10734;44.792;20.482;2023-03-14T08:55:07;99267.31;;;12.48;nan
21153;BME280;10734;44.792;20.482;2023-03-14T08:57:35;99270.78;;;12.50;nan
21153;BME280;10734;44.792;20.482;2023-03-14T09:00:03;99262.31;;;12.54;nan
21153;BME280;10734;44.792;20.482;2023-03-14T09:02:33;99259.78;;;12.64;nan
21153;BME280;10734;44.792;20.482;2023-03-14T09:04:59;99248.50;;;12.70;nan
21153;BME280;10734;44.792;20.482;2023-03-14T09:07:26;99242.34;;;12.79;nan
21153;BME280;10734;44.792;20.482;2023-03-14T09:09:53;99235.84;;;12.93;nan
21153;BME280;10734;44.792;20.482;2023-03-14T09:12:20;99238.22;;;12.98;nan
21153;BME280;10734;44.792;20.482;2023-03-14T09:14:46;99233.28;;;13.14;nan
21153;BME280;10734;44.792;20.482;2023-03-14T09:17:13;99232.34;;;13.27;nan
21153;BME280;10734;44.792;20.482;2023-03-14T09:19:41;99220.31;;;13.42;nan
21153;BME280;10734;44.792;20.482;2023-03-14T09:22:07;99216.09;;;13.60;nan
21153;BME280;10734;44.792;20.482;2023-03-14T09:24:34;99206.53;;;13.88;nan
21153;BME280;10734;44.792;20.482;2023-03-14T09:27:00;99209.38;;;14.19;nan
21153;BME280;10734;44.792;20.482;2023-03-14T09:29:27;99208.34;;;14.31;nan
21153;BME280;10734;44.792;20.482;2023-03-14T09:31:54;99197.59;;;14.41;nan
21153;BME280;10734;44.792;20.482;2023-03-14T09:34:20;99182.16;;;14.53;nan
21153;BME280;10734;44.792;20.482;2023-03-14T09:36:47;99178.91;;;14.59;nan
21153;BME280;10734;44.792;20.482;2023-03-14T09:39:14;99175.41;;;14.68;nan
21153;BME280;10734;44.792;20.482;2023-03-14T09:41:42;99169.03;;;14.79;nan
21153;BME280;10734;44.792;20.482;2023-03-14T09:44:15;99167.94;;;14.91;nan
21153;BME280;10734;44.792;20.482;2023-03-14T09:46:43;99157.66;;;15.16;nan
21153;BME280;10734;44.792;20.482;2023-03-14T09:49:13;99159.69;;;15.23;nan
21153;BME280;10734;44.792;20.482;2023-03-14T09:51:44;99154.72;;;15.38;nan
21153;BME280;10734;44.792;20.482;2023-03-14T09:56:59;99152.56;;;16.21;nan
21153;BME280;10734;44.792;20.482;2023-03-14T09:59:27;99149.50;;;16.43;nan
21153;BME280;10734;44.792;20.482;2023-03-14T10:01:56;99140.19;;;16.55;nan
21153;BME280;10734;44.792;20.482;2023-03-14T10:04:24;99144.06;;;16.53;nan
21153;BME280;10734;44.792;20.482;2023-03-14T10:06:51;99138.88;;;16.79;nan
21153;BME280;10734;44.792;20.482;2023-03-14T10:09:21;99119.97;;;16.77;nan
21153;BME280;10734;44.792;20.482;2023-03-14T10:11:55;99126.97;;;16.70;nan
21153;BME280;10734;44.792;20.482;2023-03-14T10:14:30;99116.41;;;16.77;nan
21153;BME280;10734;44.792;20.482;2023-03-14T10:17:04;99120.13;;;16.76;nan
21153;BME280;10734;44.792;20.482;2023-03-14T10:19:31;99106.88;;;17.00;nan
21153;BME280;10734;44.792;20.482;2023-03-14T10:22:01;99097.38;;;17.32;nan
21153;BME280;10734;44.792;20.482;2023-03-14T10:24:33;99097.44;;;17.50;nan
21153;BME280;10734;44.792;20.482;2023-03-14T10:27:02;99090.19;;;17.41;nan
21153;BME280;10734;44.792;20.482;2023-03-14T10:29:32;99101.56;;;17.72;nan
21153;BME280;10734;44.792;20.482;2023-03-14T10:32:01;99095.75;;;17.85;nan
21153;BME280;10734;44.792;20.482;2023-03-14T10:34:29;99089.28;;;18.22;nan
21153;BME280;10734;44.792;20.482;2023-03-14T10:36:58;99078.13;;;18.59;nan
21153;BME280;10734;44.792;20.482;2023-03-14T10:42:26;99060.88;;;19.27;nan
21153;BME280;10734;44.792;20.482;2023-03-14T10:45:02;99052.75;;;19.51;nan
21153;BME280;10734;44.792;20.482;2023-03-14T10:47:30;99055.88;;;19.73;nan
21153;BME280;10734;44.792;20.482;2023-03-14T10:50:21;99049.91;;;20.35;nan
21153;BME280;10734;44.792;20.482;2023-03-14T10:52:48;99041.53;;;20.03;nan
21153;BME280;10734;44.792;20.482;2023-03-14T10:55:43;99035.72;;;20.23;nan
21153;BME280;10734;44.792;20.482;2023-03-14T10:58:22;99036.94;;;20.12;nan
21153;BME280;10734;44.792;20.482;2023-03-14T11:00:54;99038.75;;;20.44;nan
21153;BME280;10734;44.792;20.482;2023-03-14T11:03:26;99019.31;;;20.39;nan
21153;BME280;10734;44.792;20.482;2023-03-14T11:06:03;99016.53;;;20.47;nan
21153;BME280;10734;44.792;20.482;2023-03-14T11:11:38;99031.97;;;20.96;nan
21153;BME280;10734;44.792;20.482;2023-03-14T11:14:05;99009.00;;;21.05;nan
21153;BME280;10734;44.792;20.482;2023-03-14T11:26:42;98963.88;;;20.62;nan
21153;BME280;10734;44.792;20.482;2023-03-14T11:31:38;98959.28;;;20.46;nan
21153;BME280;10734;44.792;20.482;2023-03-14T11:39:16;98931.09;;;20.53;nan
21153;BME280;10734;44.792;20.482;2023-03-14T11:41:47;98923.56;;;19.92;nan
21153;BME280;10734;44.792;20.482;2023-03-14T11:46:43;98913.47;;;19.59;nan
21153;BME280;10734;44.792;20.482;2023-03-14T11:51:52;98906.66;;;19.80;nan
21153;BME280;10734;44.792;20.482;2023-03-14T11:54:39;98895.06;;;19.78;nan
21153;BME280;10734;44.792;20.482;2023-03-14T11:57:17;98889.09;;;19.58;nan
21153;BME280;10734;44.792;20.482;2023-03-14T11:59:50;98889.09;;;19.58;nan
21153;BME280;10734;44.792;20.482;2023-03-14T12:02:26;98880.56;;;19.61;nan
21153;BME280;10734;44.792;20.482;2023-03-14T12:05:15;98865.53;;;19.57;nan
21153;BME280;10734;44.792;20.482;2023-03-14T12:10:52;98866.59;;;19.64;nan
21153;BME280;10734;44.792;20.482;2023-03-14T12:13:20;98849.28;;;19.80;nan
21153;BME280;10734;44.792;20.482;2023-03-14T12:15:49;98844.19;;;19.69;nan
21153;BME280;10734;44.792;20.482;2023-03-14T12:20:57;98833.81;;;19.64;nan
21153;BME280;10734;44.792;20.482;2023-03-14T12:23:25;98828.84;;;19.68;nan
21153;BME280;10734;44.792;20.482;2023-03-14T12:41:52;98802.25;;;20.94;nan
21153;BME280;10734;44.792;20.482;2023-03-14T12:47:13;98787.69;;;22.14;nan
21153;BME280;10734;44.792;20.482;2023-03-14T12:49:40;98780.72;;;22.26;nan
21153;BME280;10734;44.792;20.482;2023-03-14T12:52:17;98782.09;;;22.73;nan
21153;BME280;10734;44.792;20.482;2023-03-14T12:54:55;98777.94;;;23.48;nan
21153;BME280;10734;44.792;20.482;2023-03-14T13:02:44;98760.50;;;21.53;nan
21153;BME280;10734;44.792;20.482;2023-03-14T13:05:16;98765.06;;;21.61;nan
21153;BME280;10734;44.792;20.482;2023-03-14T13:10:18;98762.59;;;21.13;nan
21153;BME280;10734;44.792;20.482;2023-03-14T13:12:57;98762.00;;;21.03;nan
21153;BME280;10734;44.792;20.482;2023-03-14T13:18:15;98760.63;;;20.30;nan
21153;BME280;10734;44.792;20.482;2023-03-14T13:20:46;98752.69;;;20.12;nan
21153;BME280;10734;44.792;20.482;2023-03-14T13:23:22;98752.19;;;20.08;nan
21153;BME280;10734;44.792;20.482;2023-03-14T13:25:49;98749.34;;;19.94;nan
21153;BME280;10734;44.792;20.482;2023-03-14T13:28:17;98751.44;;;19.83;nan
21153;BME280;10734;44.792;20.482;2023-03-14T13:30:45;98742.31;;;19.68;nan
21153;BME280;10734;44.792;20.482;2023-03-14T13:33:17;98741.22;;;19.85;nan
21153;BME280;10734;44.792;20.482;2023-03-14T13:36:03;98738.47;;;19.85;nan
21153;BME280;10734;44.792;20.482;2023-03-14T13:38:33;98735.19;;;19.90;nan
21153;BME280;10734;44.792;20.482;2023-03-14T13:41:03;98727.06;;;19.82;nan
21153;BME280;10734;44.792;20.482;2023-03-14T13:43:40;98727.28;;;19.56;nan
21153;BME280;10734;44.792;20.482;2023-03-14T13:48:46;98722.16;;;19.61;nan
21153;BME280;10734;44.792;20.482;2023-03-14T13:51:14;98715.50;;;19.55;nan
21153;BME280;10734;44.792;20.482;2023-03-14T13:56:10;98700.53;;;19.51;nan
21153;BME280;10734;44.792;20.482;2023-03-14T13:58:38;98707.38;;;19.47;nan
21153;BME280;10734;44.792;20.482;2023-03-14T14:01:06;98697.44;;;19.54;nan
21153;BME280;10734;44.792;20.482;2023-03-14T14:03:39;98690.78;;;19.49;nan
21153;BME280;10734;44.792;20.482;2023-03-14T14:06:08;98691.19;;;19.37;nan
21153;BME280;10734;44.792;20.482;2023-03-14T14:08:39;98686.75;;;19.36;nan
21153;BME280;10734;44.792;20.482;2023-03-14T14:11:08;98670.75;;;19.25;nan
21153;BME280;10734;44.792;20.482;2023-03-14T14:13:37;98669.44;;;19.13;nan
21153;BME280;10734;44.792;20.482;2023-03-14T14:16:05;98652.28;;;18.80;nan
21153;BME280;10734;44.792;20.482;2023-03-14T14:18:33;98652.97;;;18.74;nan
21153;BME280;10734;44.792;20.482;2023-03-14T14:21:01;98649.19;;;18.66;nan
21153;BME280;10734;44.792;20.482;2023-03-14T14:23:28;98654.31;;;18.70;nan
21153;BME280;10734;44.792;20.482;2023-03-14T14:25:58;98641.88;;;18.59;nan
21153;BME280;10734;44.792;20.482;2023-03-14T14:28:32;98628.91;;;18.61;nan
21153;BME280;10734;44.792;20.482;2023-03-14T14:33:42;98602.69;;;18.43;nan
21153;BME280;10734;44.792;20.482;2023-03-14T14:36:19;98579.69;;;18.30;nan
21153;BME280;10734;44.792;20.482;2023-03-14T14:38:58;98590.09;;;18.18;nan
21153;BME280;10734;44.792;20.482;2023-03-14T14:41:30;98580.03;;;18.10;nan
21153;BME280;10734;44.792;20.482;2023-03-14T14:43:57;98597.59;;;18.08;nan
21153;BME280;10734;44.792;20.482;2023-03-14T14:46:25;98597.91;;;17.96;nan
21153;BME280;10734;44.792;20.482;2023-03-14T14:49:13;98583.97;;;17.91;nan
21153;BME280;10734;44.792;20.482;2023-03-14T14:51:45;98578.53;;;18.08;nan
21153;BME280;10734;44.792;20.482;2023-03-14T14:54:18;98572.53;;;18.20;nan
21153;BME280;10734;44.792;20.482;2023-03-14T14:56:46;98564.88;;;18.32;nan
21153;BME280;10734;44.792;20.482;2023-03-14T14:59:25;98562.16;;;18.49;nan
21153;BME280;10734;44.792;20.482;2023-03-14T15:02:00;98554.63;;;18.51;nan
21153;BME280;10734;44.792;20.482;2023-03-14T15:04:31;98573.50;;;18.85;nan
21153;BME280;10734;44.792;20.482;2023-03-14T15:06:58;98576.13;;;19.18;nan
21153;BME280;10734;44.792;20.482;2023-03-14T15:09:25;98581.16;;;19.37;nan
21153;BME280;10734;44.792;20.482;2023-03-14T15:11:53;98582.69;;;19.71;nan
21153;BME280;10734;44.792;20.482;2023-03-14T15:14:19;98563.28;;;20.12;nan
21153;BME280;10734;44.792;20.482;2023-03-14T15:16:46;98552.56;;;20.25;nan
21153;BME280;10734;44.792;20.482;2023-03-14T15:19:24;98553.75;;;20.45;nan
21153;BME280;10734;44.792;20.482;2023-03-14T15:21:52;98561.72;;;20.55;nan
21153;BME280;10734;44.792;20.482;2023-03-14T15:24:20;98562.50;;;20.93;nan
21153;BME280;10734;44.792;20.482;2023-03-14T15:26:47;98555.28;;;21.22;nan
21153;BME280;10734;44.792;20.482;2023-03-14T15:29:13;98545.22;;;21.08;nan
21153;BME280;10734;44.792;20.482;2023-03-14T15:31:43;98543.59;;;20.98;nan
21153;BME280;10734;44.792;20.482;2023-03-14T15:34:10;98560.88;;;20.99;nan
21153;BME280;10734;44.792;20.482;2023-03-14T15:36:37;98564.00;;;20.96;nan
21153;BME280;10734;44.792;20.482;2023-03-14T15:39:05;98541.88;;;21.27;nan
21153;BME280;10734;44.792;20.482;2023-03-14T15:41:32;98549.50;;;21.61;nan
21153;BME280;10734;44.792;20.482;2023-03-14T15:43:58;98551.22;;;21.33;nan
21153;BME280;10734;44.792;20.482;2023-03-14T15:46:27;98554.56;;;21.13;nan
21153;BME280;10734;44.792;20.482;2023-03-14T15:48:56;98558.06;;;21.07;nan
21153;BME280;10734;44.792;20.482;2023-03-14T15:51:22;98557.75;;;21.02;nan
21153;BME280;10734;44.792;20.482;2023-03-14T15:53:50;98556.34;;;21.21;nan
21153;BME280;10734;44.792;20.482;2023-03-14T15:56:18;98559.09;;;20.91;nan
21153;BME280;10734;44.792;20.482;2023-03-14T15:58:45;98559.38;;;20.44;nan
21153;BME280;10734;44.792;20.482;2023-03-14T16:01:16;98557.03;;;20.41;nan
21153;BME280;10734;44.792;20.482;2023-03-14T16:03:43;98555.53;;;20.38;nan
21153;BME280;10734;44.792;20.482;2023-03-14T16:06:12;98556.09;;;20.11;nan
21153;BME280;10734;44.792;20.482;2023-03-14T16:08:38;98562.72;;;19.93;nan
21153;BME280;10734;44.792;20.482;2023-03-14T16:11:06;98564.81;;;19.60;nan
21153;BME280;10734;44.792;20.482;2023-03-14T16:13:33;98563.66;;;19.54;nan
21153;BME280;10734;44.792;20.482;2023-03-14T16:16:02;98563.66;;;19.23;nan
21153;BME280;10734;44.792;20.482;2023-03-14T16:18:31;98562.19;;;19.04;nan
21153;BME280;10734;44.792;20.482;2023-03-14T16:21:00;98574.88;;;18.81;nan
21153;BME280;10734;44.792;20.482;2023-03-14T16:23:28;98565.22;;;18.29;nan
21153;BME280;10734;44.792;20.482;2023-03-14T16:25:55;98552.66;;;17.87;nan
21153;BME280;10734;44.792;20.482;2023-03-14T16:28:22;98556.97;;;17.56;nan
21153;BME280;10734;44.792;20.482;2023-03-14T16:30:50;98557.44;;;17.26;nan
21153;BME280;10734;44.792;20.482;2023-03-14T16:33:16;98556.16;;;17.05;nan
21153;BME280;10734;44.792;20.482;2023-03-14T16:35:58;98557.41;;;16.84;nan
21153;BME280;10734;44.792;20.482;2023-03-14T16:38:27;98552.22;;;16.65;nan
21153;BME280;10734;44.792;20.482;2023-03-14T16:41:00;98551.78;;;16.51;nan
21153;BME280;10734;44.792;20.482;2023-03-14T16:43:28;98556.81;;;16.38;nan
21153;BME280;10734;44.792;20.482;2023-03-14T16:45:56;98555.84;;;16.21;nan
21153;BME280;10734;44.792;20.482;2023-03-14T16:48:23;98559.44;;;16.04;nan
21153;BME280;10734;44.792;20.482;2023-03-14T16:50:50;98553.88;;;15.88;nan
21153;BME280;10734;44.792;20.482;2023-03-14T16:53:18;98560.16;;;15.70;nan
21153;BME280;10734;44.792;20.482;2023-03-14T16:55:45;98568.56;;;15.49;nan
